Marion, SC

12:45 PM EDT on April 26, 2015 (GMT -0400)
RAWS | | Change Station
CLOSE
Current Station
Personal Weather Station
Location: Marion, SC
Elevation: 92 ft
Nearby Weather Stations
Active Advisory: Flood Warning

Elev 92 ft 34.19 °N, 79.34 °W | Updated 38 minutes ago

Overcast
Overcast
58 °F
Feels Like 58 °F
N
7
Wind Variable Wind from NE
Gusts 14.0 mph

Today
High -- | Low -- °F
--% Chance of Precip.
Yesterday
High -- | Low -- °F
Precip. -- in
6:33 AM 7:57 PM
First Quarter, 57% visible
Pressure 29.67 in
Visibility 10.0 miles
Clouds Overcast 600 ft
Dew Point 55 °F
Humidity 90%
Rainfall in
Snow Depth Not available.
UV 3 out of 12
Pollen 8.80 out of 12
Air Quality Not available.
Flu Activity Local Activity
METAR KMAO 261635Z AUTO 36009KT 10SM OVC006 15/13 A2967 RMK AO2

More Conditions Fewer Conditions

Pressure 29.67 in
Visibility 10.0 miles
Clouds Overcast 600 ft
Dew Point 55 °F
Humidity 90%
Rainfall in
Snow Depth Not available.
UV 3 out of 12
Pollen 8.80 out of 12
Air Quality Not available.
Flu Activity Local Activity
METAR KMAO 261635Z AUTO 36009KT 10SM OVC006 15/13 A2967 RMK AO2

More Conditions Fewer Conditions

The full scope of the disaster following a powerful 7.8-magnitude earthquake in Nepal may not come into view for days, but global charities are already sending emergency aid. Click to see how you can help.

10-Day Weather Forecast

Almanac

Astronomy

Apr. 26, 2015 Rise Set
Actual Time
Civil Twilight
Nautical Twilight
Astronomical Twilight
Moon
Length of Visible Light
Length of Day
Tomorrow will be .
, % of the Moon is Illuminated

Today's Extremes

State Highs State Lows

Community

WunderPhotos

Upload Photos

1,817,054 photos uploaded!

WunderBlogs® & News

Nearby

Air Quality

  Air Quality AQ Index Pollutant
Not available.

Snow Depth

Station Depth Elevation

Earthquake Activity

City Distance Mag. Time & Date
Minimum magnitude displayed is 2.5.

Coastal Water Temperatures

Place Temperature

Stations

Nearby Weather Stations

Station Location Temp. Windchill Dew Point Humidity Wind Precip. Elev Updated Type
                   
Flood Warning
Statement as of 9:33 AM EDT on April 26, 2015

The Flood Warning continues for
the great Pee Dee at Pee Dee.
* Until further notice.
* At 9:00 am Sunday the stage was 21.6 feet.
* Flood stage is 19.0 feet.
* Minor flooding is occurring and minor flooding is forecast.
* Forecast... the river will continue to fall to a stage of 21.1 feet by tomorrow
morning.
* Impact... at 23.0 feet... flooding will affect swamp and timberlands while also
disrupting logging operations. Operations will likely cease and equipment not
previously moved will remain trapped. Some farmland will have minor flooding
especially around Britton Neck.


Lat... Lon 3424 7962 3424 7950 3400 7945 3385 7932
          3385 7944 3398 7957